createdAt,value
2018-08-06T00:00:55.264Z,3.50
2018-08-06T00:03:26.213Z,4.20
2018-08-06T00:06:02.667Z,3.90
2018-08-06T00:08:33.348Z,3.93
2018-08-06T00:11:03.340Z,4.43
2018-08-06T00:13:36.709Z,4.50
2018-08-06T00:16:07.777Z,4.20
2018-08-06T00:18:37.730Z,4.10
2018-08-06T00:21:09.593Z,3.87
2018-08-06T00:23:39.585Z,3.93
2018-08-06T00:26:10.618Z,4.10
2018-08-06T00:28:41.689Z,4.20
2018-08-06T00:31:16.748Z,4.10
2018-08-06T00:33:48.800Z,4.53
2018-08-06T00:36:18.856Z,3.93
2018-08-06T00:38:50.877Z,4.30
2018-08-06T00:41:24.496Z,3.90
2018-08-06T00:43:56.525Z,4.60
2018-08-06T00:46:26.513Z,5.03
2018-08-06T00:48:56.525Z,4.80
2018-08-06T00:51:26.502Z,4.83
2018-08-06T00:53:56.997Z,4.40
2018-08-06T00:56:30.544Z,4.17
2018-08-06T00:59:00.397Z,4.53
2018-08-06T01:01:33.080Z,4.87
2018-08-06T01:04:02.940Z,4.40
2018-08-06T01:07:57.355Z,4.37
2018-08-06T01:10:27.148Z,4.97
2018-08-06T01:12:57.885Z,4.90
2018-08-06T01:15:28.901Z,4.30
2018-08-06T01:18:03.796Z,5.30
2018-08-06T01:20:38.492Z,4.57
2018-08-06T01:23:10.560Z,3.77
2018-08-06T01:25:43.385Z,4.37
2018-08-06T01:28:16.112Z,5.07
2018-08-06T01:30:46.776Z,4.43
2018-08-06T01:33:35.540Z,4.30
2018-08-06T01:36:11.274Z,4.20
2018-08-06T01:38:45.897Z,4.27
2018-08-06T01:41:15.596Z,5.17
2018-08-06T01:43:48.660Z,4.73
2018-08-06T01:46:18.542Z,4.50
2018-08-06T01:48:48.135Z,4.80
2018-08-06T01:51:17.676Z,4.60
2018-08-06T01:53:54.589Z,5.10
2018-08-06T01:56:30.329Z,4.80
2018-08-06T01:59:00.273Z,4.63
2018-08-06T02:01:33.708Z,5.03
2018-08-06T02:04:05.351Z,6.27
2018-08-06T02:06:36.204Z,5.53
2018-08-06T02:09:07.488Z,5.63
2018-08-06T02:11:37.200Z,4.70
2018-08-06T02:14:07.864Z,5.03
2018-08-06T02:16:42.988Z,4.93
2018-08-06T02:19:17.265Z,5.97
2018-08-06T02:21:50.152Z,5.07
2018-08-06T02:24:20.050Z,5.07
2018-08-06T02:26:50.132Z,5.40
2018-08-06T02:29:20.828Z,5.83
2018-08-06T02:31:51.609Z,5.33
2018-08-06T02:34:22.306Z,4.73
2018-08-06T02:36:53.188Z,4.70
2018-08-06T02:39:25.012Z,4.83
2018-08-06T02:41:58.688Z,6.33
2018-08-06T02:44:30.292Z,6.43
2018-08-06T02:47:01.060Z,5.00
2018-08-06T02:49:30.924Z,5.40
2018-08-06T02:52:05.304Z,5.67
2018-08-06T02:54:35.920Z,5.20
2018-08-06T02:57:06.696Z,4.33
2018-08-06T02:59:36.469Z,4.83
2018-08-06T03:02:06.260Z,5.40
2018-08-06T03:04:35.836Z,5.10
2018-08-06T03:07:06.352Z,5.50
2018-08-06T03:09:36.132Z,6.07
2018-08-06T03:12:07.744Z,5.37
2018-08-06T03:14:41.248Z,5.50
2018-08-06T03:17:11.977Z,5.13
2018-08-06T03:19:46.020Z,5.53
2018-08-06T03:22:18.991Z,6.93
2018-08-06T03:24:52.076Z,5.37
2018-08-06T03:27:23.916Z,6.37
2018-08-06T03:29:54.756Z,5.70
2018-08-06T03:32:27.952Z,5.07
2018-08-06T03:34:57.788Z,5.77
2018-08-06T03:37:27.668Z,5.17
2018-08-06T03:40:01.280Z,5.80
2018-08-06T03:42:36.366Z,4.93
2018-08-06T03:45:25.744Z,6.00
2018-08-06T03:47:56.616Z,6.20
2018-08-06T03:50:30.716Z,6.07
2018-08-06T03:53:04.225Z,5.83
2018-08-06T03:55:36.008Z,6.20
2018-08-06T03:58:09.440Z,5.70
2018-08-06T04:00:56.852Z,6.37
2018-08-06T04:03:26.736Z,5.53
2018-08-06T04:06:03.244Z,6.90
2018-08-06T04:08:33.152Z,5.73
2018-08-06T04:11:03.940Z,4.63
2018-08-06T04:13:48.072Z,6.07
2018-08-06T04:16:34.140Z,6.00
2018-08-06T04:19:11.624Z,5.60
2018-08-06T04:21:44.476Z,5.53
2018-08-06T04:24:14.396Z,6.10
2018-08-06T04:26:44.312Z,5.77
2018-08-06T04:29:13.952Z,5.33
2018-08-06T04:31:47.605Z,4.97
2018-08-06T04:34:18.524Z,5.47
2018-08-06T04:36:48.136Z,5.90
2018-08-06T04:39:17.838Z,5.43
2018-08-06T04:41:47.717Z,5.70
2018-08-06T04:44:21.280Z,5.20
2018-08-06T04:46:54.351Z,5.30
2018-08-06T04:49:28.260Z,5.73
2018-08-06T04:51:58.116Z,5.00
2018-08-06T04:54:29.960Z,4.60
2018-08-06T04:57:00.540Z,4.97
2018-08-06T04:59:30.280Z,4.70
2018-08-06T05:02:00.210Z,5.60
2018-08-06T05:04:29.912Z,4.43
2018-08-06T05:06:59.607Z,4.30
2018-08-06T05:09:44.224Z,4.60
2018-08-06T05:12:13.854Z,4.47
2018-08-06T05:14:44.600Z,4.67
2018-08-06T05:17:18.400Z,4.10
2018-08-06T05:19:48.212Z,4.80
2018-08-06T05:22:19.100Z,4.70
2018-08-06T05:24:49.004Z,4.77
2018-08-06T05:27:22.747Z,4.20
2018-08-06T05:29:54.627Z,5.00
2018-08-06T05:32:27.607Z,5.00
2018-08-06T05:34:59.427Z,4.20
2018-08-06T05:37:29.383Z,3.70
2018-08-06T05:40:01.373Z,3.70
2018-08-06T05:42:32.255Z,4.80
2018-08-06T05:45:03.272Z,4.80
2018-08-06T05:47:33.854Z,4.07
2018-08-06T05:50:03.458Z,3.97
2018-08-06T05:52:33.207Z,3.70
2018-08-06T05:55:03.015Z,4.00
2018-08-06T05:57:32.827Z,4.40
2018-08-06T06:00:09.080Z,3.80
2018-08-06T06:02:39.712Z,4.20
2018-08-06T06:05:09.888Z,3.97
2018-08-06T06:07:46.967Z,3.57
2018-08-06T06:10:17.876Z,3.50
2018-08-06T06:12:52.324Z,3.77
2018-08-06T06:15:24.280Z,3.50
2018-08-06T06:17:55.903Z,4.20
2018-08-06T06:20:25.460Z,4.03
2018-08-06T06:22:55.228Z,3.73
2018-08-06T06:25:31.896Z,3.20
2018-08-06T06:28:02.689Z,3.80
2018-08-06T06:30:33.308Z,3.63
2018-08-06T06:33:02.824Z,3.67
2018-08-06T06:35:38.975Z,2.83
2018-08-06T06:38:10.756Z,3.20
2018-08-06T06:40:41.536Z,3.80
2018-08-06T06:43:11.332Z,3.33
2018-08-06T06:45:53.168Z,3.23
2018-08-06T06:48:22.984Z,2.90
2018-08-06T06:50:53.012Z,3.00
2018-08-06T06:53:26.171Z,2.73
2018-08-06T06:56:00.695Z,3.80
2018-08-06T06:58:31.676Z,2.67
2018-08-06T07:01:01.484Z,2.90
2018-08-06T07:03:32.151Z,3.60
2018-08-06T07:06:02.660Z,3.53
2018-08-06T07:08:32.416Z,3.23
2018-08-06T07:11:02.279Z,2.77
2018-08-06T07:13:34.200Z,3.37
2018-08-06T07:16:03.871Z,3.17
2018-08-06T07:18:48.099Z,2.73
2018-08-06T07:21:22.400Z,2.30
2018-08-06T07:23:51.976Z,3.30
2018-08-06T07:26:21.972Z,2.90
2018-08-06T07:28:54.883Z,2.80
2018-08-06T07:31:24.719Z,3.30
2018-08-06T07:33:54.548Z,2.63
2018-08-06T07:36:24.464Z,2.93
2018-08-06T07:38:54.376Z,2.80
2018-08-06T07:41:34.045Z,2.90
2018-08-06T07:44:03.775Z,2.80
2018-08-06T07:46:38.007Z,3.03
2018-08-06T07:49:07.639Z,2.27
2018-08-06T07:51:38.388Z,2.63
2018-08-06T07:54:09.259Z,2.07
2018-08-06T07:56:41.075Z,1.93
2018-08-06T07:59:12.859Z,2.43
2018-08-06T08:01:44.743Z,2.63
2018-08-06T08:04:16.543Z,2.50
2018-08-06T08:06:46.375Z,2.27
2018-08-06T08:09:19.744Z,2.40
2018-08-06T08:11:56.357Z,2.97
2018-08-06T08:14:26.048Z,2.00
2018-08-06T08:17:01.504Z,2.70
2018-08-06T08:19:37.067Z,2.70
2018-08-06T08:22:10.111Z,2.40
2018-08-06T08:24:40.872Z,1.87
2018-08-06T08:27:16.087Z,2.57
2018-08-06T08:29:51.443Z,3.00
2018-08-06T08:32:21.299Z,2.27
2018-08-06T08:34:59.956Z,2.13
2018-08-06T08:37:29.791Z,2.03
2018-08-06T08:40:03.848Z,2.10
2018-08-06T08:42:38.247Z,2.30
2018-08-06T08:45:14.110Z,2.40
2018-08-06T08:47:44.635Z,2.17
2018-08-06T08:50:37.775Z,3.07
2018-08-06T08:53:13.759Z,2.20
2018-08-06T08:55:54.514Z,2.70
2018-08-06T08:58:28.075Z,1.80
2018-08-06T09:00:59.839Z,2.50
2018-08-06T09:03:32.944Z,2.30
2018-08-06T09:06:02.612Z,2.33
2018-08-06T09:08:34.388Z,1.90
2018-08-06T09:11:10.167Z,2.00
2018-08-06T09:13:58.394Z,2.20
2018-08-06T09:16:29.123Z,1.77
2018-08-06T09:19:01.680Z,2.00
2018-08-06T09:21:31.463Z,1.67
2018-08-06T09:24:01.244Z,1.77
2018-08-06T09:26:31.763Z,1.57
2018-08-06T09:29:02.571Z,1.70
2018-08-06T09:31:33.095Z,1.63
2018-08-06T09:34:02.649Z,2.30
2018-08-06T09:36:44.511Z,1.97
2018-08-06T09:39:14.470Z,2.03
2018-08-06T09:41:46.203Z,2.00
2018-08-06T09:44:16.015Z,2.60
2018-08-06T09:46:46.815Z,1.73
2018-08-06T09:49:19.891Z,1.70
2018-08-06T09:51:50.343Z,2.20
2018-08-06T09:54:20.139Z,1.97
2018-08-06T09:56:53.224Z,1.90
2018-08-06T09:59:28.885Z,1.80
2018-08-06T10:02:02.371Z,1.70
2018-08-06T10:04:40.059Z,2.00
2018-08-06T10:07:09.739Z,2.20
2018-08-06T10:09:39.579Z,2.33
2018-08-06T10:12:10.369Z,1.87
2018-08-06T10:14:43.284Z,2.00
2018-08-06T10:17:14.047Z,1.67
2018-08-06T10:20:00.016Z,1.67
2018-08-06T10:22:36.415Z,1.80
2018-08-06T10:25:11.507Z,1.70
2018-08-06T10:27:45.307Z,2.00
2018-08-06T10:30:31.709Z,1.70
2018-08-06T10:33:01.836Z,2.43
2018-08-06T10:35:39.420Z,1.80
2018-08-06T10:38:20.915Z,1.97
2018-08-06T10:40:50.707Z,2.20
2018-08-06T10:43:23.789Z,2.00
2018-08-06T10:45:54.559Z,1.87
2018-08-06T10:48:38.769Z,1.90
2018-08-06T10:51:10.283Z,1.70
2018-08-06T10:53:39.951Z,1.80
2018-08-06T10:56:09.727Z,2.10
2018-08-06T10:58:43.371Z,2.00
2018-08-06T11:01:13.148Z,1.90
2018-08-06T11:03:43.683Z,1.90
2018-08-06T11:06:13.644Z,1.80
2018-08-06T11:09:00.627Z,1.87
2018-08-06T11:11:30.418Z,1.97
2018-08-06T11:14:01.202Z,1.73
2018-08-06T11:16:31.049Z,1.60
2018-08-06T11:19:02.871Z,2.10
2018-08-06T11:21:33.691Z,1.57
2018-08-06T11:24:04.371Z,1.63
2018-08-06T11:26:34.064Z,1.70
2018-08-06T11:29:03.908Z,2.27
2018-08-06T11:31:35.757Z,1.97
2018-08-06T11:34:05.724Z,1.87
2018-08-06T11:36:35.699Z,1.73
2018-08-06T11:39:09.543Z,2.17
2018-08-06T11:41:39.199Z,1.70
2018-08-06T11:44:11.027Z,2.13
2018-08-06T11:46:51.135Z,2.00
2018-08-06T11:49:21.051Z,1.87
2018-08-06T11:51:58.063Z,1.70
2018-08-06T11:54:28.803Z,1.83
2018-08-06T11:57:02.072Z,1.77
2018-08-06T11:59:32.111Z,1.80
2018-08-06T12:02:01.887Z,1.97
2018-08-06T12:04:37.151Z,1.70
2018-08-06T12:07:10.559Z,1.90
2018-08-06T12:09:42.475Z,1.80
2018-08-06T12:12:15.751Z,1.40
2018-08-06T12:14:45.711Z,1.60
2018-08-06T12:17:15.571Z,2.33
2018-08-06T12:19:46.231Z,1.93
2018-08-06T12:22:15.928Z,2.03
2018-08-06T12:24:45.762Z,1.77
2018-08-06T12:27:15.628Z,1.90
2018-08-06T12:29:45.345Z,2.33
2018-08-06T12:32:20.655Z,1.90
2018-08-06T12:34:50.158Z,1.93
2018-08-06T12:37:19.927Z,1.83
2018-08-06T12:39:51.795Z,2.03
2018-08-06T12:42:23.685Z,1.77
2018-08-06T12:45:00.946Z,1.97
2018-08-06T12:47:31.551Z,2.47
2018-08-06T12:50:01.034Z,2.00
2018-08-06T12:52:31.723Z,2.57
2018-08-06T12:55:01.259Z,1.30
2018-08-06T12:57:32.034Z,1.73
2018-08-06T13:00:01.606Z,1.37
2018-08-06T13:02:32.123Z,1.80
2018-08-06T13:05:01.665Z,1.90
2018-08-06T13:07:31.425Z,1.93
2018-08-06T13:10:02.086Z,1.73
2018-08-06T13:12:36.051Z,1.80
2018-08-06T13:15:08.858Z,1.50
2018-08-06T13:17:38.667Z,2.00
2018-08-06T13:20:12.071Z,1.77
2018-08-06T13:22:41.890Z,1.80
2018-08-06T13:25:13.259Z,1.70
2018-08-06T13:27:43.086Z,1.90
2018-08-06T13:30:16.279Z,1.73
2018-08-06T13:32:47.602Z,1.80
2018-08-06T13:35:21.242Z,1.90
2018-08-06T13:37:55.275Z,1.70
2018-08-06T13:40:26.166Z,2.50
2018-08-06T13:42:56.071Z,1.80
2018-08-06T13:45:27.821Z,1.93
2018-08-06T13:47:57.454Z,2.00
2018-08-06T13:50:27.146Z,1.80
2018-08-06T13:52:56.939Z,1.50
2018-08-06T13:55:27.830Z,1.50
2018-08-06T13:57:57.731Z,1.57
2018-08-06T14:00:27.303Z,1.30
2018-08-06T14:02:58.109Z,1.60
2018-08-06T14:05:28.882Z,1.67
2018-08-06T14:08:00.686Z,1.47
2018-08-06T14:10:30.394Z,1.63
2018-08-06T14:13:01.147Z,1.60
2018-08-06T14:15:35.434Z,1.73
2018-08-06T14:18:07.763Z,1.30
2018-08-06T14:20:51.935Z,1.80
2018-08-06T14:23:22.746Z,1.70
2018-08-06T14:25:53.660Z,1.70
2018-08-06T14:28:25.222Z,1.67
2018-08-06T14:30:55.987Z,1.70
2018-08-06T14:33:31.399Z,1.70
2018-08-06T14:36:00.955Z,1.53
2018-08-06T14:38:31.708Z,1.70
2018-08-06T14:41:01.255Z,1.50
2018-08-06T14:43:41.427Z,1.93
2018-08-06T14:46:15.067Z,1.90
2018-08-06T14:48:44.908Z,1.50
2018-08-06T14:51:14.516Z,1.70
2018-08-06T14:53:51.047Z,1.60
2018-08-06T14:56:20.787Z,1.60
2018-08-06T14:58:56.011Z,1.27
2018-08-06T15:01:26.351Z,1.80
2018-08-06T15:03:57.894Z,1.90
2018-08-06T15:06:31.923Z,2.03
2018-08-06T15:09:23.015Z,1.30
2018-08-06T15:11:53.795Z,1.87
2018-08-06T15:14:24.620Z,1.50
2018-08-06T15:16:55.466Z,1.50
2018-08-06T15:19:26.287Z,1.40
2018-08-06T15:21:56.907Z,1.43
2018-08-06T15:24:26.641Z,1.90
2018-08-06T15:26:57.281Z,1.80
2018-08-06T15:29:38.383Z,1.87
2018-08-06T15:32:09.335Z,1.60
2018-08-06T15:34:43.585Z,3.00
2018-08-06T15:37:14.443Z,1.60
2018-08-06T15:39:49.502Z,1.57
2018-08-06T15:42:19.295Z,1.60
2018-08-06T15:44:49.103Z,1.70
2018-08-06T15:47:18.807Z,1.77
2018-08-06T15:49:53.583Z,1.97
2018-08-06T15:52:23.111Z,1.80
2018-08-06T15:54:53.703Z,1.97
2018-08-06T15:57:23.575Z,2.00
2018-08-06T15:59:53.387Z,1.70
2018-08-06T16:02:22.966Z,1.43
2018-08-06T16:04:52.702Z,1.20
2018-08-06T16:07:22.507Z,2.00
2018-08-06T16:09:52.263Z,1.73
2018-08-06T16:12:22.118Z,2.20
2018-08-06T16:14:52.878Z,1.80
2018-08-06T16:17:22.511Z,2.17
2018-08-06T16:19:52.063Z,2.00
2018-08-06T16:22:21.586Z,2.70
2018-08-06T16:24:51.322Z,2.17
2018-08-06T16:27:21.874Z,1.80
2018-08-06T16:29:55.266Z,2.33
2018-08-06T16:32:24.838Z,2.60
2018-08-06T16:34:54.702Z,2.30
2018-08-06T16:37:25.506Z,2.60
2018-08-06T16:39:56.367Z,2.60
2018-08-06T16:42:26.039Z,3.40
2018-08-06T16:44:59.270Z,3.00
2018-08-06T16:47:28.962Z,2.10
2018-08-06T16:49:58.507Z,2.57
2018-08-06T16:52:31.494Z,2.63
2018-08-06T16:55:01.907Z,2.80
2018-08-06T16:57:32.389Z,2.90
2018-08-06T17:00:02.943Z,3.27
2018-08-06T17:02:43.599Z,3.13
2018-08-06T17:05:14.430Z,2.63
2018-08-06T17:07:45.215Z,3.00
2018-08-06T17:10:19.636Z,2.60
2018-08-06T17:12:54.000Z,2.47
2018-08-06T17:15:23.911Z,2.40
2018-08-06T17:17:54.666Z,3.00
2018-08-06T17:20:25.330Z,3.17
2018-08-06T17:22:55.246Z,2.83
2018-08-06T17:25:33.790Z,2.97
2018-08-06T17:28:09.182Z,3.47
2018-08-06T17:30:39.962Z,3.03
2018-08-06T17:33:09.806Z,2.67
2018-08-06T17:35:39.658Z,2.60
2018-08-06T17:38:14.794Z,2.90
2018-08-06T17:40:46.594Z,3.40
2018-08-06T17:43:16.430Z,3.50
2018-08-06T17:45:47.026Z,3.20
2018-08-06T17:48:16.478Z,3.10
2018-08-06T17:50:46.218Z,2.80
2018-08-06T17:53:16.098Z,2.83
2018-08-06T17:55:49.634Z,2.57
2018-08-06T17:58:20.555Z,2.60
2018-08-06T18:00:50.353Z,2.97
2018-08-06T18:03:25.838Z,2.90
2018-08-06T18:05:55.333Z,2.07
2018-08-06T18:08:25.998Z,2.73
2018-08-06T18:10:55.601Z,23.97
2018-08-06T18:13:31.821Z,3.43
2018-08-06T18:16:05.895Z,3.30
2018-08-06T18:18:35.689Z,3.23
2018-08-06T18:21:06.481Z,3.03
2018-08-06T18:23:40.017Z,2.70
2018-08-06T18:26:09.519Z,3.13
2018-08-06T18:28:40.202Z,2.63
2018-08-06T18:31:09.858Z,3.70
2018-08-06T18:33:56.346Z,3.00
2018-08-06T18:36:28.139Z,3.40
2018-08-06T18:38:58.931Z,3.30
2018-08-06T18:41:28.490Z,3.17
2018-08-06T18:43:59.234Z,3.47
2018-08-06T18:46:33.330Z,3.53
2018-08-06T18:49:04.299Z,3.90
2018-08-06T18:51:34.978Z,4.10
2018-08-06T18:54:05.974Z,3.57
2018-08-06T18:56:36.106Z,4.33
2018-08-06T18:59:05.938Z,3.83
2018-08-06T19:01:37.718Z,3.80
2018-08-06T19:04:12.684Z,4.63
2018-08-06T19:06:42.506Z,4.53
2018-08-06T19:09:19.238Z,4.20
2018-08-06T19:11:49.058Z,4.70
2018-08-06T19:14:24.570Z,3.50
2018-08-06T19:16:55.458Z,4.03
2018-08-06T19:19:27.782Z,4.47
2018-08-06T19:21:59.110Z,4.57
2018-08-06T19:24:35.241Z,4.80
2018-08-06T19:27:07.154Z,4.30
2018-08-06T19:29:44.910Z,4.47
2018-08-06T19:32:15.833Z,4.50
2018-08-06T19:34:46.719Z,3.93
2018-08-06T19:37:25.338Z,4.30
2018-08-06T19:39:57.274Z,4.60
2018-08-06T19:42:32.386Z,4.60
2018-08-06T19:45:02.459Z,4.20
2018-08-06T19:47:32.286Z,4.30
2018-08-06T19:50:08.532Z,4.60
2018-08-06T19:52:42.738Z,4.57
2018-08-06T19:55:17.689Z,4.83
2018-08-06T19:57:47.254Z,4.97
2018-08-06T20:00:17.054Z,4.50
2018-08-06T20:02:46.938Z,4.13
2018-08-06T20:05:17.753Z,4.50
2018-08-06T20:07:47.814Z,4.27
2018-08-06T20:10:21.667Z,4.40
2018-08-06T20:12:56.913Z,3.77
2018-08-06T20:15:32.929Z,4.03
2018-08-06T20:18:02.676Z,4.33
2018-08-06T20:20:33.285Z,4.23
2018-08-06T20:23:02.953Z,4.50
2018-08-06T20:25:32.945Z,3.80
2018-08-06T20:28:03.973Z,4.60
2018-08-06T20:30:34.017Z,4.20
2018-08-06T20:33:04.953Z,4.13
2018-08-06T20:35:34.984Z,4.00
2018-08-06T20:38:08.773Z,4.60
2018-08-06T20:40:38.429Z,4.70
2018-08-06T20:43:08.305Z,5.60
2018-08-06T20:45:39.013Z,5.73
2018-08-06T20:48:10.749Z,4.87
2018-08-06T20:50:46.897Z,5.00
2018-08-06T20:53:16.989Z,4.50
2018-08-06T20:55:52.826Z,5.67
2018-08-06T20:58:22.685Z,4.60
2018-08-06T21:00:52.465Z,4.60
2018-08-06T21:03:26.693Z,5.40
2018-08-06T21:05:58.631Z,5.10
2018-08-06T21:08:28.653Z,5.30
2018-08-06T21:10:58.364Z,5.00
2018-08-06T21:13:29.757Z,4.27
2018-08-06T21:15:59.568Z,5.20
2018-08-06T21:18:30.633Z,4.47
